sensor_id;sensor_type;location;lat;lon;timestamp;temperature;humidity
47022;DHT22;32779;52.264;6.154;2023-02-11T00:00:07;6.50;99.90
47022;DHT22;32779;52.264;6.154;2023-02-11T00:02:33;6.50;99.90
47022;DHT22;32779;52.264;6.154;2023-02-11T00:04:59;6.50;99.90
47022;DHT22;32779;52.264;6.154;2023-02-11T00:07:28;6.50;99.90
47022;DHT22;32779;52.264;6.154;2023-02-11T00:09:54;6.50;99.90
47022;DHT22;32779;52.264;6.154;2023-02-11T00:12:20;6.40;99.90
47022;DHT22;32779;52.264;6.154;2023-02-11T00:14:46;6.50;99.90
47022;DHT22;32779;52.264;6.154;2023-02-11T00:17:11;6.50;99.90
47022;DHT22;32779;52.264;6.154;2023-02-11T00:19:37;6.50;99.90
47022;DHT22;32779;52.264;6.154;2023-02-11T00:22:02;6.50;99.90
47022;DHT22;32779;52.264;6.154;2023-02-11T00:24:28;6.50;99.90
47022;DHT22;32779;52.264;6.154;2023-02-11T00:26:54;6.50;99.90
47022;DHT22;32779;52.264;6.154;2023-02-11T00:29:20;6.50;99.90
47022;DHT22;32779;52.264;6.154;2023-02-11T00:31:46;6.50;99.90
47022;DHT22;32779;52.264;6.154;2023-02-11T00:34:12;6.50;99.90
47022;DHT22;32779;52.264;6.154;2023-02-11T00:36:38;6.50;99.90
47022;DHT22;32779;52.264;6.154;2023-02-11T00:39:03;6.50;99.90
47022;DHT22;32779;52.264;6.154;2023-02-11T00:41:29;6.50;99.90
47022;DHT22;32779;52.264;6.154;2023-02-11T00:43:55;6.50;99.90
47022;DHT22;32779;52.264;6.154;2023-02-11T00:46:21;6.50;99.90
47022;DHT22;32779;52.264;6.154;2023-02-11T00:48:48;6.50;99.90
47022;DHT22;32779;52.264;6.154;2023-02-11T00:51:13;6.50;99.90
47022;DHT22;32779;52.264;6.154;2023-02-11T00:53:39;6.50;99.90
47022;DHT22;32779;52.264;6.154;2023-02-11T00:56:05;6.50;99.90
47022;DHT22;32779;52.264;6.154;2023-02-11T00:58:31;6.50;99.90
47022;DHT22;32779;52.264;6.154;2023-02-11T01:00:57;6.50;99.90
47022;DHT22;32779;52.264;6.154;2023-02-11T01:03:26;6.50;99.90
47022;DHT22;32779;52.264;6.154;2023-02-11T01:05:52;6.50;99.90
47022;DHT22;32779;52.264;6.154;2023-02-11T01:08:17;6.50;99.90
47022;DHT22;32779;52.264;6.154;2023-02-11T01:10:43;6.50;99.90
47022;DHT22;32779;52.264;6.154;2023-02-11T01:13:09;6.50;99.90
47022;DHT22;32779;52.264;6.154;2023-02-11T01:15:35;6.60;99.90
47022;DHT22;32779;52.264;6.154;2023-02-11T01:18:00;6.50;99.90
47022;DHT22;32779;52.264;6.154;2023-02-11T01:20:29;6.50;99.90
47022;DHT22;32779;52.264;6.154;2023-02-11T01:22:55;6.50;99.90
47022;DHT22;32779;52.264;6.154;2023-02-11T01:25:20;6.50;99.90
47022;DHT22;32779;52.264;6.154;2023-02-11T01:27:46;6.50;99.90
47022;DHT22;32779;52.264;6.154;2023-02-11T01:30:12;6.60;99.90
47022;DHT22;32779;52.264;6.154;2023-02-11T01:32:39;6.50;99.90
47022;DHT22;32779;52.264;6.154;2023-02-11T01:35:05;6.60;99.90
47022;DHT22;32779;52.264;6.154;2023-02-11T01:37:34;6.50;99.90
47022;DHT22;32779;52.264;6.154;2023-02-11T01:40:12;6.50;99.90
47022;DHT22;32779;52.264;6.154;2023-02-11T01:42:38;6.50;99.90
47022;DHT22;32779;52.264;6.154;2023-02-11T01:48:10;6.60;99.90
47022;DHT22;32779;52.264;6.154;2023-02-11T01:50:37;6.50;99.90
47022;DHT22;32779;52.264;6.154;2023-02-11T01:53:04;6.50;99.90
47022;DHT22;32779;52.264;6.154;2023-02-11T01:55:49;6.50;99.90
47022;DHT22;32779;52.264;6.154;2023-02-11T01:58:37;6.50;99.90
47022;DHT22;32779;52.264;6.154;2023-02-11T02:01:10;6.60;99.90
47022;DHT22;32779;52.264;6.154;2023-02-11T02:03:39;6.50;99.90
47022;DHT22;32779;52.264;6.154;2023-02-11T02:06:15;6.50;99.90
47022;DHT22;32779;52.264;6.154;2023-02-11T02:09:04;6.50;99.90
47022;DHT22;32779;52.264;6.154;2023-02-11T02:11:31;6.50;99.90
47022;DHT22;32779;52.264;6.154;2023-02-11T02:13:57;6.50;99.90
47022;DHT22;32779;52.264;6.154;2023-02-11T02:16:29;6.50;99.90
47022;DHT22;32779;52.264;6.154;2023-02-11T02:19:13;6.50;99.90
47022;DHT22;32779;52.264;6.154;2023-02-11T02:24:58;6.50;99.90
47022;DHT22;32779;52.264;6.154;2023-02-11T02:28:10;6.50;99.90
47022;DHT22;32779;52.264;6.154;2023-02-11T02:31:09;6.50;99.90
47022;DHT22;32779;52.264;6.154;2023-02-11T02:33:59;6.50;99.90
47022;DHT22;32779;52.264;6.154;2023-02-11T02:36:31;6.50;99.90
47022;DHT22;32779;52.264;6.154;2023-02-11T02:39:05;6.50;99.90
47022;DHT22;32779;52.264;6.154;2023-02-11T02:41:34;6.50;99.90
47022;DHT22;32779;52.264;6.154;2023-02-11T02:44:00;6.50;99.90
47022;DHT22;32779;52.264;6.154;2023-02-11T02:46:31;6.50;99.90
47022;DHT22;32779;52.264;6.154;2023-02-11T02:48:58;6.50;99.90
47022;DHT22;32779;52.264;6.154;2023-02-11T02:57:11;6.50;99.90
47022;DHT22;32779;52.264;6.154;2023-02-11T03:00:04;6.50;99.90
47022;DHT22;32779;52.264;6.154;2023-02-11T03:07:41;6.40;99.90
47022;DHT22;32779;52.264;6.154;2023-02-11T03:12:37;6.40;99.90
47022;DHT22;32779;52.264;6.154;2023-02-11T03:15:05;6.40;99.90
47022;DHT22;32779;52.264;6.154;2023-02-11T03:17:32;6.40;99.90
47022;DHT22;32779;52.264;6.154;2023-02-11T03:20:00;6.40;99.90
47022;DHT22;32779;52.264;6.154;2023-02-11T03:22:32;6.40;99.90
47022;DHT22;32779;52.264;6.154;2023-02-11T03:25:00;6.50;99.90
47022;DHT22;32779;52.264;6.154;2023-02-11T03:30:29;6.40;99.90
47022;DHT22;32779;52.264;6.154;2023-02-11T03:33:34;6.40;99.90
47022;DHT22;32779;52.264;6.154;2023-02-11T03:36:09;6.40;99.90
47022;DHT22;32779;52.264;6.154;2023-02-11T03:38:45;6.40;99.90
47022;DHT22;32779;52.264;6.154;2023-02-11T03:41:12;6.50;99.90
47022;DHT22;32779;52.264;6.154;2023-02-11T03:43:45;6.50;99.90
47022;DHT22;32779;52.264;6.154;2023-02-11T03:46:14;6.50;99.90
47022;DHT22;32779;52.264;6.154;2023-02-11T03:48:43;6.50;99.90
47022;DHT22;32779;52.264;6.154;2023-02-11T03:51:11;6.50;99.90
47022;DHT22;32779;52.264;6.154;2023-02-11T03:53:40;6.40;99.90
47022;DHT22;32779;52.264;6.154;2023-02-11T03:56:10;6.40;99.90
47022;DHT22;32779;52.264;6.154;2023-02-11T03:58:37;6.50;99.90
47022;DHT22;32779;52.264;6.154;2023-02-11T04:01:03;6.40;99.90
47022;DHT22;32779;52.264;6.154;2023-02-11T04:03:29;6.40;99.90
47022;DHT22;32779;52.264;6.154;2023-02-11T04:05:57;6.50;99.90
47022;DHT22;32779;52.264;6.154;2023-02-11T04:08:23;6.50;99.90
47022;DHT22;32779;52.264;6.154;2023-02-11T04:10:48;6.50;99.90
47022;DHT22;32779;52.264;6.154;2023-02-11T04:13:14;6.50;99.90
47022;DHT22;32779;52.264;6.154;2023-02-11T04:15:39;6.50;99.90
47022;DHT22;32779;52.264;6.154;2023-02-11T04:18:05;6.50;99.90
47022;DHT22;32779;52.264;6.154;2023-02-11T04:20:31;6.50;99.90
47022;DHT22;32779;52.264;6.154;2023-02-11T04:22:56;6.50;99.90
47022;DHT22;32779;52.264;6.154;2023-02-11T04:25:22;6.50;99.90
47022;DHT22;32779;52.264;6.154;2023-02-11T04:27:47;6.50;99.90
47022;DHT22;32779;52.264;6.154;2023-02-11T04:30:13;6.50;99.90
47022;DHT22;32779;52.264;6.154;2023-02-11T04:32:39;6.50;99.90
47022;DHT22;32779;52.264;6.154;2023-02-11T04:35:05;6.50;99.90
47022;DHT22;32779;52.264;6.154;2023-02-11T04:37:31;6.50;99.90
47022;DHT22;32779;52.264;6.154;2023-02-11T04:39:56;6.50;99.90
47022;DHT22;32779;52.264;6.154;2023-02-11T04:42:22;6.50;99.90
47022;DHT22;32779;52.264;6.154;2023-02-11T04:44:48;6.50;99.90
47022;DHT22;32779;52.264;6.154;2023-02-11T04:47:13;6.50;99.90
47022;DHT22;32779;52.264;6.154;2023-02-11T04:49:40;6.50;99.90
47022;DHT22;32779;52.264;6.154;2023-02-11T04:52:06;6.50;99.90
47022;DHT22;32779;52.264;6.154;2023-02-11T04:54:31;6.50;99.90
47022;DHT22;32779;52.264;6.154;2023-02-11T04:56:57;6.50;99.90
47022;DHT22;32779;52.264;6.154;2023-02-11T04:59:23;6.50;99.90
47022;DHT22;32779;52.264;6.154;2023-02-11T05:01:48;6.50;99.90
47022;DHT22;32779;52.264;6.154;2023-02-11T05:04:14;6.50;99.90
47022;DHT22;32779;52.264;6.154;2023-02-11T05:06:40;6.50;99.90
47022;DHT22;32779;52.264;6.154;2023-02-11T05:09:06;6.50;99.90
47022;DHT22;32779;52.264;6.154;2023-02-11T05:11:31;6.60;99.90
47022;DHT22;32779;52.264;6.154;2023-02-11T05:13:57;6.60;99.90
47022;DHT22;32779;52.264;6.154;2023-02-11T05:16:23;6.50;99.90
47022;DHT22;32779;52.264;6.154;2023-02-11T05:18:48;6.50;99.90
47022;DHT22;32779;52.264;6.154;2023-02-11T05:21:17;6.50;99.90
47022;DHT22;32779;52.264;6.154;2023-02-11T05:23:44;6.60;99.90
47022;DHT22;32779;52.264;6.154;2023-02-11T05:26:10;6.60;99.90
47022;DHT22;32779;52.264;6.154;2023-02-11T05:28:37;6.60;99.90
47022;DHT22;32779;52.264;6.154;2023-02-11T05:31:03;6.60;99.90
47022;DHT22;32779;52.264;6.154;2023-02-11T05:33:28;6.60;99.90
47022;DHT22;32779;52.264;6.154;2023-02-11T05:35:58;6.60;99.90
47022;DHT22;32779;52.264;6.154;2023-02-11T05:38:27;6.60;99.90
47022;DHT22;32779;52.264;6.154;2023-02-11T05:40:53;6.60;99.90
47022;DHT22;32779;52.264;6.154;2023-02-11T05:43:19;6.60;99.90
47022;DHT22;32779;52.264;6.154;2023-02-11T05:45:44;6.60;99.90
47022;DHT22;32779;52.264;6.154;2023-02-11T05:48:10;6.60;99.90
47022;DHT22;32779;52.264;6.154;2023-02-11T05:50:36;6.60;99.90
47022;DHT22;32779;52.264;6.154;2023-02-11T05:53:02;6.60;99.90
47022;DHT22;32779;52.264;6.154;2023-02-11T05:55:27;6.60;99.90
47022;DHT22;32779;52.264;6.154;2023-02-11T05:57:53;6.70;99.90
47022;DHT22;32779;52.264;6.154;2023-02-11T06:00:19;6.70;99.90
47022;DHT22;32779;52.264;6.154;2023-02-11T06:02:44;6.60;99.90
47022;DHT22;32779;52.264;6.154;2023-02-11T06:05:10;6.60;99.90
47022;DHT22;32779;52.264;6.154;2023-02-11T06:07:36;6.70;99.90
47022;DHT22;32779;52.264;6.154;2023-02-11T06:10:01;6.70;99.90
47022;DHT22;32779;52.264;6.154;2023-02-11T06:12:27;6.70;99.90
47022;DHT22;32779;52.264;6.154;2023-02-11T06:14:53;6.70;99.90
47022;DHT22;32779;52.264;6.154;2023-02-11T06:17:18;6.60;99.90
47022;DHT22;32779;52.264;6.154;2023-02-11T06:19:44;6.60;99.90
47022;DHT22;32779;52.264;6.154;2023-02-11T06:22:09;6.60;99.90
47022;DHT22;32779;52.264;6.154;2023-02-11T06:24:35;6.60;99.90
47022;DHT22;32779;52.264;6.154;2023-02-11T06:27:03;6.60;99.90
47022;DHT22;32779;52.264;6.154;2023-02-11T06:29:29;6.60;99.90
47022;DHT22;32779;52.264;6.154;2023-02-11T06:31:55;6.60;99.90
47022;DHT22;32779;52.264;6.154;2023-02-11T06:34:20;6.60;99.90
47022;DHT22;32779;52.264;6.154;2023-02-11T06:36:46;6.60;99.90
47022;DHT22;32779;52.264;6.154;2023-02-11T06:39:12;6.60;99.90
47022;DHT22;32779;52.264;6.154;2023-02-11T06:41:38;6.60;99.90
47022;DHT22;32779;52.264;6.154;2023-02-11T06:44:05;6.60;99.90
47022;DHT22;32779;52.264;6.154;2023-02-11T06:46:31;6.70;99.90
47022;DHT22;32779;52.264;6.154;2023-02-11T06:48:56;6.60;99.90
47022;DHT22;32779;52.264;6.154;2023-02-11T06:51:22;6.60;99.90
47022;DHT22;32779;52.264;6.154;2023-02-11T06:53:48;6.60;99.90
47022;DHT22;32779;52.264;6.154;2023-02-11T06:56:16;6.60;99.90
47022;DHT22;32779;52.264;6.154;2023-02-11T06:58:42;6.60;99.90
47022;DHT22;32779;52.264;6.154;2023-02-11T07:01:11;6.60;99.90
47022;DHT22;32779;52.264;6.154;2023-02-11T07:03:39;6.60;99.90
47022;DHT22;32779;52.264;6.154;2023-02-11T07:06:06;6.60;99.90
47022;DHT22;32779;52.264;6.154;2023-02-11T07:08:36;6.70;99.90
47022;DHT22;32779;52.264;6.154;2023-02-11T07:11:11;6.70;99.90
47022;DHT22;32779;52.264;6.154;2023-02-11T07:13:37;6.70;99.90
47022;DHT22;32779;52.264;6.154;2023-02-11T07:16:09;6.70;99.90
47022;DHT22;32779;52.264;6.154;2023-02-11T07:18:35;6.70;99.90
47022;DHT22;32779;52.264;6.154;2023-02-11T07:21:08;6.70;99.90
47022;DHT22;32779;52.264;6.154;2023-02-11T07:23:35;6.70;99.90
47022;DHT22;32779;52.264;6.154;2023-02-11T07:26:03;6.70;99.90
47022;DHT22;32779;52.264;6.154;2023-02-11T07:28:28;6.70;99.90
47022;DHT22;32779;52.264;6.154;2023-02-11T07:30:54;6.70;99.90
47022;DHT22;32779;52.264;6.154;2023-02-11T07:33:20;6.70;99.90
47022;DHT22;32779;52.264;6.154;2023-02-11T07:35:45;6.70;99.90
47022;DHT22;32779;52.264;6.154;2023-02-11T07:38:11;6.70;99.90
47022;DHT22;32779;52.264;6.154;2023-02-11T07:40:37;6.80;99.90
47022;DHT22;32779;52.264;6.154;2023-02-11T07:43:02;6.80;99.90
47022;DHT22;32779;52.264;6.154;2023-02-11T07:45:28;6.80;99.90
47022;DHT22;32779;52.264;6.154;2023-02-11T07:47:53;6.80;99.90
47022;DHT22;32779;52.264;6.154;2023-02-11T07:50:19;6.80;99.90
47022;DHT22;32779;52.264;6.154;2023-02-11T07:52:44;6.80;99.90
47022;DHT22;32779;52.264;6.154;2023-02-11T07:55:10;6.80;99.90
47022;DHT22;32779;52.264;6.154;2023-02-11T07:57:36;6.90;99.90
47022;DHT22;32779;52.264;6.154;2023-02-11T08:00:03;6.90;99.90
47022;DHT22;32779;52.264;6.154;2023-02-11T08:02:29;7.00;99.90
47022;DHT22;32779;52.264;6.154;2023-02-11T08:04:54;7.00;99.90
47022;DHT22;32779;52.264;6.154;2023-02-11T08:07:20;7.00;99.90
47022;DHT22;32779;52.264;6.154;2023-02-11T08:09:46;7.00;99.90
47022;DHT22;32779;52.264;6.154;2023-02-11T08:12:12;7.00;99.90
47022;DHT22;32779;52.264;6.154;2023-02-11T08:14:38;7.00;99.90
47022;DHT22;32779;52.264;6.154;2023-02-11T08:17:03;7.00;99.90
47022;DHT22;32779;52.264;6.154;2023-02-11T08:19:29;7.00;99.90
47022;DHT22;32779;52.264;6.154;2023-02-11T08:21:55;7.10;99.90
47022;DHT22;32779;52.264;6.154;2023-02-11T08:24:21;7.10;99.90
47022;DHT22;32779;52.264;6.154;2023-02-11T08:26:47;7.10;99.90
47022;DHT22;32779;52.264;6.154;2023-02-11T08:29:14;7.10;99.90
47022;DHT22;32779;52.264;6.154;2023-02-11T08:31:42;7.20;99.90
47022;DHT22;32779;52.264;6.154;2023-02-11T08:34:09;7.20;99.90
47022;DHT22;32779;52.264;6.154;2023-02-11T08:36:36;7.20;99.90
47022;DHT22;32779;52.264;6.154;2023-02-11T08:39:06;7.30;99.90
47022;DHT22;32779;52.264;6.154;2023-02-11T08:41:33;7.30;99.90
47022;DHT22;32779;52.264;6.154;2023-02-11T08:43:59;7.30;99.90
47022;DHT22;32779;52.264;6.154;2023-02-11T08:46:25;7.40;99.90
47022;DHT22;32779;52.264;6.154;2023-02-11T08:48:51;7.40;99.90
47022;DHT22;32779;52.264;6.154;2023-02-11T08:51:21;7.40;99.90
47022;DHT22;32779;52.264;6.154;2023-02-11T08:53:48;7.40;99.90
47022;DHT22;32779;52.264;6.154;2023-02-11T08:56:15;7.50;99.90
47022;DHT22;32779;52.264;6.154;2023-02-11T08:58:41;7.50;99.90
47022;DHT22;32779;52.264;6.154;2023-02-11T09:01:33;7.50;99.90
47022;DHT22;32779;52.264;6.154;2023-02-11T09:03:59;7.50;99.90
47022;DHT22;32779;52.264;6.154;2023-02-11T09:06:26;7.50;99.90
47022;DHT22;32779;52.264;6.154;2023-02-11T09:08:54;7.50;99.90
47022;DHT22;32779;52.264;6.154;2023-02-11T09:11:25;7.60;99.90
47022;DHT22;32779;52.264;6.154;2023-02-11T09:13:51;7.60;99.90
47022;DHT22;32779;52.264;6.154;2023-02-11T09:16:19;7.60;99.90
47022;DHT22;32779;52.264;6.154;2023-02-11T09:18:45;7.60;99.90
47022;DHT22;32779;52.264;6.154;2023-02-11T09:21:11;7.70;99.90
47022;DHT22;32779;52.264;6.154;2023-02-11T09:23:38;7.70;99.90
47022;DHT22;32779;52.264;6.154;2023-02-11T09:26:18;7.70;99.90
47022;DHT22;32779;52.264;6.154;2023-02-11T09:28:44;7.80;99.90
47022;DHT22;32779;52.264;6.154;2023-02-11T09:31:16;7.80;99.90
47022;DHT22;32779;52.264;6.154;2023-02-11T09:33:44;7.90;99.90
47022;DHT22;32779;52.264;6.154;2023-02-11T09:36:14;7.90;99.90
47022;DHT22;32779;52.264;6.154;2023-02-11T09:38:40;8.00;99.90
47022;DHT22;32779;52.264;6.154;2023-02-11T09:41:11;8.00;99.90
47022;DHT22;32779;52.264;6.154;2023-02-11T09:43:44;8.10;99.90
47022;DHT22;32779;52.264;6.154;2023-02-11T09:46:14;8.10;99.90
47022;DHT22;32779;52.264;6.154;2023-02-11T09:48:42;8.10;99.90
47022;DHT22;32779;52.264;6.154;2023-02-11T09:51:34;8.10;99.90
47022;DHT22;32779;52.264;6.154;2023-02-11T09:54:28;8.20;99.90
47022;DHT22;32779;52.264;6.154;2023-02-11T09:56:55;8.20;99.90
47022;DHT22;32779;52.264;6.154;2023-02-11T09:59:21;8.20;99.90
47022;DHT22;32779;52.264;6.154;2023-02-11T10:01:56;8.30;99.90
47022;DHT22;32779;52.264;6.154;2023-02-11T10:07:27;8.30;99.90
47022;DHT22;32779;52.264;6.154;2023-02-11T10:10:04;8.40;99.90
47022;DHT22;32779;52.264;6.154;2023-02-11T10:12:55;8.50;99.90
47022;DHT22;32779;52.264;6.154;2023-02-11T10:18:57;8.60;99.90
47022;DHT22;32779;52.264;6.154;2023-02-11T10:21:38;8.70;99.90
47022;DHT22;32779;52.264;6.154;2023-02-11T10:24:12;8.70;99.90
47022;DHT22;32779;52.264;6.154;2023-02-11T10:26:39;8.80;99.90
47022;DHT22;32779;52.264;6.154;2023-02-11T10:31:58;8.90;99.90
47022;DHT22;32779;52.264;6.154;2023-02-11T10:34:25;8.90;99.90
47022;DHT22;32779;52.264;6.154;2023-02-11T10:36:50;9.00;99.90
47022;DHT22;32779;52.264;6.154;2023-02-11T10:39:25;9.10;99.90
47022;DHT22;32779;52.264;6.154;2023-02-11T10:41:52;9.10;99.90
47022;DHT22;32779;52.264;6.154;2023-02-11T10:44:26;9.20;99.90
47022;DHT22;32779;52.264;6.154;2023-02-11T10:46:53;9.20;99.90
47022;DHT22;32779;52.264;6.154;2023-02-11T10:49:38;9.30;99.90
47022;DHT22;32779;52.264;6.154;2023-02-11T10:52:21;9.30;99.90
47022;DHT22;32779;52.264;6.154;2023-02-11T10:57:32;9.40;99.90
47022;DHT22;32779;52.264;6.154;2023-02-11T11:00:04;9.50;99.90
47022;DHT22;32779;52.264;6.154;2023-02-11T11:02:33;9.60;99.90
47022;DHT22;32779;52.264;6.154;2023-02-11T11:05:16;9.60;99.90
47022;DHT22;32779;52.264;6.154;2023-02-11T11:07:57;9.60;99.90
47022;DHT22;32779;52.264;6.154;2023-02-11T11:10:41;9.60;99.90
47022;DHT22;32779;52.264;6.154;2023-02-11T11:13:32;9.60;99.90
47022;DHT22;32779;52.264;6.154;2023-02-11T11:16:21;9.70;99.90
47022;DHT22;32779;52.264;6.154;2023-02-11T11:18:49;9.70;99.90
47022;DHT22;32779;52.264;6.154;2023-02-11T11:24:04;9.80;99.90
47022;DHT22;32779;52.264;6.154;2023-02-11T11:27:00;9.80;99.90
47022;DHT22;32779;52.264;6.154;2023-02-11T11:29:59;9.90;99.90
47022;DHT22;32779;52.264;6.154;2023-02-11T11:32:36;9.90;99.90
47022;DHT22;32779;52.264;6.154;2023-02-11T11:35:04;9.90;99.90
47022;DHT22;32779;52.264;6.154;2023-02-11T11:37:35;9.90;99.90
47022;DHT22;32779;52.264;6.154;2023-02-11T11:40:31;10.00;99.90
47022;DHT22;32779;52.264;6.154;2023-02-11T11:45:38;10.10;99.90
47022;DHT22;32779;52.264;6.154;2023-02-11T11:50:47;10.10;99.90
47022;DHT22;32779;52.264;6.154;2023-02-11T11:55:55;10.20;99.90
47022;DHT22;32779;52.264;6.154;2023-02-11T11:58:22;10.20;99.90
47022;DHT22;32779;52.264;6.154;2023-02-11T12:03:56;10.30;99.90
47022;DHT22;32779;52.264;6.154;2023-02-11T12:12:02;10.40;99.90
47022;DHT22;32779;52.264;6.154;2023-02-11T12:17:50;10.50;99.90
47022;DHT22;32779;52.264;6.154;2023-02-11T12:23:26;10.60;99.90
47022;DHT22;32779;52.264;6.154;2023-02-11T12:26:06;10.60;99.90
47022;DHT22;32779;52.264;6.154;2023-02-11T12:28:59;10.70;99.90
47022;DHT22;32779;52.264;6.154;2023-02-11T12:31:56;10.70;99.90
47022;DHT22;32779;52.264;6.154;2023-02-11T12:40:02;11.00;99.90
47022;DHT22;32779;52.264;6.154;2023-02-11T12:42:46;11.10;99.90
47022;DHT22;32779;52.264;6.154;2023-02-11T12:48:29;11.30;99.90
47022;DHT22;32779;52.264;6.154;2023-02-11T13:01:56;11.40;99.90
47022;DHT22;32779;52.264;6.154;2023-02-11T13:04:39;11.30;99.90
47022;DHT22;32779;52.264;6.154;2023-02-11T13:07:18;11.30;99.90
47022;DHT22;32779;52.264;6.154;2023-02-11T13:12:48;11.40;99.90
47022;DHT22;32779;52.264;6.154;2023-02-11T13:15:34;11.40;99.90
47022;DHT22;32779;52.264;6.154;2023-02-11T13:18:23;11.40;99.90
47022;DHT22;32779;52.264;6.154;2023-02-11T13:26:47;11.30;99.90
47022;DHT22;32779;52.264;6.154;2023-02-11T13:29:34;11.30;99.90
47022;DHT22;32779;52.264;6.154;2023-02-11T13:32:08;11.40;99.90
47022;DHT22;32779;52.264;6.154;2023-02-11T13:37:25;11.30;99.90
47022;DHT22;32779;52.264;6.154;2023-02-11T13:40:06;11.30;99.90
47022;DHT22;32779;52.264;6.154;2023-02-11T13:42:53;11.30;99.90
47022;DHT22;32779;52.264;6.154;2023-02-11T13:45:33;11.30;99.90
47022;DHT22;32779;52.264;6.154;2023-02-11T13:48:27;11.30;99.90
47022;DHT22;32779;52.264;6.154;2023-02-11T13:51:01;11.30;99.90
47022;DHT22;32779;52.264;6.154;2023-02-11T13:53:27;11.30;99.90
47022;DHT22;32779;52.264;6.154;2023-02-11T13:56:09;11.20;99.90
47022;DHT22;32779;52.264;6.154;2023-02-11T13:58:46;11.20;99.90
47022;DHT22;32779;52.264;6.154;2023-02-11T14:04:20;11.20;99.90
47022;DHT22;32779;52.264;6.154;2023-02-11T14:13:24;11.00;99.90
47022;DHT22;32779;52.264;6.154;2023-02-11T14:16:11;11.00;99.90
47022;DHT22;32779;52.264;6.154;2023-02-11T14:23:37;11.10;99.90
47022;DHT22;32779;52.264;6.154;2023-02-11T14:28:35;11.20;99.90
47022;DHT22;32779;52.264;6.154;2023-02-11T14:31:07;11.30;99.90
47022;DHT22;32779;52.264;6.154;2023-02-11T14:39:14;11.20;99.90
47022;DHT22;32779;52.264;6.154;2023-02-11T14:41:44;11.20;99.90
47022;DHT22;32779;52.264;6.154;2023-02-11T14:44:19;11.20;99.90
47022;DHT22;32779;52.264;6.154;2023-02-11T14:46:48;11.10;99.90
47022;DHT22;32779;52.264;6.154;2023-02-11T14:49:30;11.10;99.90
47022;DHT22;32779;52.264;6.154;2023-02-11T14:52:12;11.10;99.90
47022;DHT22;32779;52.264;6.154;2023-02-11T14:54:42;11.00;99.90
47022;DHT22;32779;52.264;6.154;2023-02-11T14:57:12;10.90;99.90
47022;DHT22;32779;52.264;6.154;2023-02-11T14:59:39;10.90;99.90
47022;DHT22;32779;52.264;6.154;2023-02-11T15:02:21;10.90;99.90
47022;DHT22;32779;52.264;6.154;2023-02-11T15:04:47;10.90;99.90
47022;DHT22;32779;52.264;6.154;2023-02-11T15:07:13;10.80;99.90
47022;DHT22;32779;52.264;6.154;2023-02-11T15:09:42;10.80;99.90
47022;DHT22;32779;52.264;6.154;2023-02-11T15:12:27;10.70;99.90
47022;DHT22;32779;52.264;6.154;2023-02-11T15:14:55;10.70;99.90
47022;DHT22;32779;52.264;6.154;2023-02-11T15:17:25;10.60;99.90
47022;DHT22;32779;52.264;6.154;2023-02-11T15:19:54;10.60;99.90
47022;DHT22;32779;52.264;6.154;2023-02-11T15:22:27;10.50;99.90
47022;DHT22;32779;52.264;6.154;2023-02-11T15:25:11;10.50;99.90
47022;DHT22;32779;52.264;6.154;2023-02-11T15:27:44;10.40;99.90
47022;DHT22;32779;52.264;6.154;2023-02-11T15:32:58;10.40;99.90
47022;DHT22;32779;52.264;6.154;2023-02-11T15:35:34;10.40;99.90
47022;DHT22;32779;52.264;6.154;2023-02-11T15:38:01;10.30;99.90
47022;DHT22;32779;52.264;6.154;2023-02-11T15:40:30;10.30;99.90
47022;DHT22;32779;52.264;6.154;2023-02-11T15:43:08;10.30;99.90
47022;DHT22;32779;52.264;6.154;2023-02-11T15:48:26;10.30;99.90
47022;DHT22;32779;52.264;6.154;2023-02-11T15:50:55;10.30;99.90
47022;DHT22;32779;52.264;6.154;2023-02-11T15:53:24;10.30;99.90
47022;DHT22;32779;52.264;6.154;2023-02-11T15:56:01;10.20;99.90
47022;DHT22;32779;52.264;6.154;2023-02-11T15:58:28;10.20;99.90
47022;DHT22;32779;52.264;6.154;2023-02-11T16:00:53;10.20;99.90
47022;DHT22;32779;52.264;6.154;2023-02-11T16:03:26;10.20;99.90
47022;DHT22;32779;52.264;6.154;2023-02-11T16:05:53;10.10;99.90
47022;DHT22;32779;52.264;6.154;2023-02-11T16:08:26;10.10;99.90
47022;DHT22;32779;52.264;6.154;2023-02-11T16:10:59;10.10;99.90
47022;DHT22;32779;52.264;6.154;2023-02-11T16:13:29;10.00;99.90
47022;DHT22;32779;52.264;6.154;2023-02-11T16:16:18;10.00;99.90
47022;DHT22;32779;52.264;6.154;2023-02-11T16:18:49;10.00;99.90
47022;DHT22;32779;52.264;6.154;2023-02-11T16:21:17;10.00;99.90
47022;DHT22;32779;52.264;6.154;2023-02-11T16:23:55;9.90;99.90
47022;DHT22;32779;52.264;6.154;2023-02-11T16:26:27;9.80;99.90
47022;DHT22;32779;52.264;6.154;2023-02-11T16:29:03;9.80;99.90
47022;DHT22;32779;52.264;6.154;2023-02-11T16:31:33;9.70;99.90
47022;DHT22;32779;52.264;6.154;2023-02-11T16:33:59;9.70;99.90
47022;DHT22;32779;52.264;6.154;2023-02-11T16:36:25;9.60;99.90
47022;DHT22;32779;52.264;6.154;2023-02-11T16:38:51;9.60;99.90
47022;DHT22;32779;52.264;6.154;2023-02-11T16:41:16;9.50;99.90
47022;DHT22;32779;52.264;6.154;2023-02-11T16:43:42;9.50;99.90
47022;DHT22;32779;52.264;6.154;2023-02-11T16:46:13;9.50;99.90
47022;DHT22;32779;52.264;6.154;2023-02-11T16:48:39;9.50;99.90
47022;DHT22;32779;52.264;6.154;2023-02-11T16:51:05;9.40;99.90
47022;DHT22;32779;52.264;6.154;2023-02-11T16:53:33;9.40;99.90
47022;DHT22;32779;52.264;6.154;2023-02-11T16:55:59;9.30;99.90
47022;DHT22;32779;52.264;6.154;2023-02-11T16:58:24;9.30;99.90
47022;DHT22;32779;52.264;6.154;2023-02-11T17:00:50;9.30;99.90
47022;DHT22;32779;52.264;6.154;2023-02-11T17:03:19;9.30;99.90
47022;DHT22;32779;52.264;6.154;2023-02-11T17:05:46;9.30;99.90
47022;DHT22;32779;52.264;6.154;2023-02-11T17:08:12;9.30;99.90
47022;DHT22;32779;52.264;6.154;2023-02-11T17:10:37;9.30;99.90
47022;DHT22;32779;52.264;6.154;2023-02-11T17:13:04;9.30;99.90
47022;DHT22;32779;52.264;6.154;2023-02-11T17:15:30;9.30;99.90
47022;DHT22;32779;52.264;6.154;2023-02-11T17:17:56;9.30;99.90
47022;DHT22;32779;52.264;6.154;2023-02-11T17:20:22;9.30;99.90
47022;DHT22;32779;52.264;6.154;2023-02-11T17:22:48;9.30;99.90
47022;DHT22;32779;52.264;6.154;2023-02-11T17:25:14;9.30;99.90
47022;DHT22;32779;52.264;6.154;2023-02-11T17:27:40;9.20;99.90
47022;DHT22;32779;52.264;6.154;2023-02-11T17:30:06;9.20;99.90
47022;DHT22;32779;52.264;6.154;2023-02-11T17:32:32;9.20;99.90
47022;DHT22;32779;52.264;6.154;2023-02-11T17:34:57;9.20;99.90
47022;DHT22;32779;52.264;6.154;2023-02-11T17:37:23;9.20;99.90
47022;DHT22;32779;52.264;6.154;2023-02-11T17:39:49;9.20;99.90
47022;DHT22;32779;52.264;6.154;2023-02-11T17:42:15;9.20;99.90
47022;DHT22;32779;52.264;6.154;2023-02-11T17:44:43;9.20;99.90
47022;DHT22;32779;52.264;6.154;2023-02-11T17:47:10;9.20;99.90
47022;DHT22;32779;52.264;6.154;2023-02-11T17:49:35;9.20;99.90
47022;DHT22;32779;52.264;6.154;2023-02-11T17:52:01;9.10;99.90
47022;DHT22;32779;52.264;6.154;2023-02-11T17:54:27;9.20;99.90
47022;DHT22;32779;52.264;6.154;2023-02-11T17:56:53;9.20;99.90
47022;DHT22;32779;52.264;6.154;2023-02-11T17:59:19;9.10;99.90